sensor_id;sensor_type;location;lat;lon;timestamp;P1;durP1;ratioP1;P2;durP2;ratioP2
10446;SDS011;5271;44.422;26.092;2023-06-04T00:01:10;0.40;;;0.40;;
10446;SDS011;5271;44.422;26.092;2023-06-04T00:03:37;0.40;;;0.40;;
10446;SDS011;5271;44.422;26.092;2023-06-04T00:06:05;0.40;;;0.40;;
10446;SDS011;5271;44.422;26.092;2023-06-04T00:08:32;0.40;;;0.40;;
10446;SDS011;5271;44.422;26.092;2023-06-04T00:10:59;0.50;;;0.50;;
10446;SDS011;5271;44.422;26.092;2023-06-04T00:13:26;0.40;;;0.40;;
10446;SDS011;5271;44.422;26.092;2023-06-04T00:15:53;0.40;;;0.40;;
10446;SDS011;5271;44.422;26.092;2023-06-04T00:18:20;0.40;;;0.40;;
10446;SDS011;5271;44.422;26.092;2023-06-04T00:20:47;0.30;;;0.30;;
10446;SDS011;5271;44.422;26.092;2023-06-04T00:23:15;0.40;;;0.40;;
10446;SDS011;5271;44.422;26.092;2023-06-04T00:25:42;0.40;;;0.40;;
10446;SDS011;5271;44.422;26.092;2023-06-04T00:28:09;0.30;;;0.30;;
10446;SDS011;5271;44.422;26.092;2023-06-04T00:30:35;0.30;;;0.30;;
10446;SDS011;5271;44.422;26.092;2023-06-04T00:33:02;0.40;;;0.40;;
10446;SDS011;5271;44.422;26.092;2023-06-04T00:35:29;0.30;;;0.30;;
10446;SDS011;5271;44.422;26.092;2023-06-04T00:37:58;0.30;;;0.30;;
10446;SDS011;5271;44.422;26.092;2023-06-04T00:40:26;0.30;;;0.30;;
10446;SDS011;5271;44.422;26.092;2023-06-04T00:42:53;0.30;;;0.30;;
10446;SDS011;5271;44.422;26.092;2023-06-04T00:45:20;0.30;;;0.30;;
10446;SDS011;5271;44.422;26.092;2023-06-04T00:47:51;0.30;;;0.30;;
10446;SDS011;5271;44.422;26.092;2023-06-04T00:50:18;0.40;;;0.40;;
10446;SDS011;5271;44.422;26.092;2023-06-04T00:52:46;0.30;;;0.30;;
10446;SDS011;5271;44.422;26.092;2023-06-04T00:55:13;0.40;;;0.40;;
10446;SDS011;5271;44.422;26.092;2023-06-04T00:57:44;0.30;;;0.30;;
10446;SDS011;5271;44.422;26.092;2023-06-04T01:00:11;0.40;;;0.40;;
10446;SDS011;5271;44.422;26.092;2023-06-04T01:02:39;0.40;;;0.40;;
10446;SDS011;5271;44.422;26.092;2023-06-04T01:05:10;0.30;;;0.30;;
10446;SDS011;5271;44.422;26.092;2023-06-04T01:07:42;0.30;;;0.30;;
10446;SDS011;5271;44.422;26.092;2023-06-04T01:10:12;0.30;;;0.30;;
10446;SDS011;5271;44.422;26.092;2023-06-04T01:12:39;0.40;;;0.40;;
10446;SDS011;5271;44.422;26.092;2023-06-04T01:15:08;0.30;;;0.30;;
10446;SDS011;5271;44.422;26.092;2023-06-04T01:17:37;0.30;;;0.30;;
10446;SDS011;5271;44.422;26.092;2023-06-04T01:20:12;0.40;;;0.40;;
10446;SDS011;5271;44.422;26.092;2023-06-04T01:22:48;0.30;;;0.30;;
10446;SDS011;5271;44.422;26.092;2023-06-04T01:25:27;0.30;;;0.30;;
10446;SDS011;5271;44.422;26.092;2023-06-04T01:27:58;0.30;;;0.30;;
10446;SDS011;5271;44.422;26.092;2023-06-04T01:30:30;0.30;;;0.30;;
10446;SDS011;5271;44.422;26.092;2023-06-04T01:32:58;0.40;;;0.40;;
10446;SDS011;5271;44.422;26.092;2023-06-04T01:35:26;0.40;;;0.40;;
10446;SDS011;5271;44.422;26.092;2023-06-04T01:37:54;0.40;;;0.40;;
10446;SDS011;5271;44.422;26.092;2023-06-04T01:40:22;0.40;;;0.40;;
10446;SDS011;5271;44.422;26.092;2023-06-04T01:42:50;0.40;;;0.40;;
10446;SDS011;5271;44.422;26.092;2023-06-04T01:45:17;0.40;;;0.40;;
10446;SDS011;5271;44.422;26.092;2023-06-04T01:47:46;0.40;;;0.40;;
10446;SDS011;5271;44.422;26.092;2023-06-04T01:50:13;0.30;;;0.30;;
10446;SDS011;5271;44.422;26.092;2023-06-04T01:52:40;0.33;;;0.33;;
10446;SDS011;5271;44.422;26.092;2023-06-04T01:55:07;0.30;;;0.30;;
10446;SDS011;5271;44.422;26.092;2023-06-04T01:57:37;0.40;;;0.40;;
10446;SDS011;5271;44.422;26.092;2023-06-04T02:00:05;0.40;;;0.40;;
10446;SDS011;5271;44.422;26.092;2023-06-04T02:02:34;0.30;;;0.30;;
10446;SDS011;5271;44.422;26.092;2023-06-04T02:05:03;0.40;;;0.40;;
10446;SDS011;5271;44.422;26.092;2023-06-04T02:07:32;0.30;;;0.30;;
10446;SDS011;5271;44.422;26.092;2023-06-04T02:09:59;0.30;;;0.30;;
10446;SDS011;5271;44.422;26.092;2023-06-04T02:12:26;0.30;;;0.30;;
10446;SDS011;5271;44.422;26.092;2023-06-04T02:14:53;0.30;;;0.30;;
10446;SDS011;5271;44.422;26.092;2023-06-04T02:17:20;0.30;;;0.30;;
10446;SDS011;5271;44.422;26.092;2023-06-04T02:19:47;0.40;;;0.40;;
10446;SDS011;5271;44.422;26.092;2023-06-04T02:22:17;0.30;;;0.30;;
10446;SDS011;5271;44.422;26.092;2023-06-04T02:24:44;0.40;;;0.40;;
10446;SDS011;5271;44.422;26.092;2023-06-04T02:27:13;0.40;;;0.40;;
10446;SDS011;5271;44.422;26.092;2023-06-04T02:29:40;0.40;;;0.40;;
10446;SDS011;5271;44.422;26.092;2023-06-04T02:32:07;0.40;;;0.40;;
10446;SDS011;5271;44.422;26.092;2023-06-04T02:34:34;0.30;;;0.30;;
10446;SDS011;5271;44.422;26.092;2023-06-04T02:37:02;0.40;;;0.40;;
10446;SDS011;5271;44.422;26.092;2023-06-04T02:39:31;0.40;;;0.40;;
10446;SDS011;5271;44.422;26.092;2023-06-04T02:41:57;0.30;;;0.30;;
10446;SDS011;5271;44.422;26.092;2023-06-04T02:44:24;0.40;;;0.40;;
10446;SDS011;5271;44.422;26.092;2023-06-04T02:46:51;0.30;;;0.30;;
10446;SDS011;5271;44.422;26.092;2023-06-04T02:49:18;0.30;;;0.30;;
10446;SDS011;5271;44.422;26.092;2023-06-04T02:51:45;0.30;;;0.30;;
10446;SDS011;5271;44.422;26.092;2023-06-04T02:54:12;0.40;;;0.40;;
10446;SDS011;5271;44.422;26.092;2023-06-04T02:56:40;0.30;;;0.30;;
10446;SDS011;5271;44.422;26.092;2023-06-04T02:59:08;0.40;;;0.40;;
10446;SDS011;5271;44.422;26.092;2023-06-04T03:01:35;0.40;;;0.40;;
10446;SDS011;5271;44.422;26.092;2023-06-04T03:04:02;0.40;;;0.40;;
10446;SDS011;5271;44.422;26.092;2023-06-04T03:06:30;0.40;;;0.40;;
10446;SDS011;5271;44.422;26.092;2023-06-04T03:08:57;0.40;;;0.40;;
10446;SDS011;5271;44.422;26.092;2023-06-04T03:11:26;0.40;;;0.40;;
10446;SDS011;5271;44.422;26.092;2023-06-04T03:13:55;0.40;;;0.40;;
10446;SDS011;5271;44.422;26.092;2023-06-04T03:16:22;0.37;;;0.37;;
10446;SDS011;5271;44.422;26.092;2023-06-04T03:18:48;0.40;;;0.40;;
10446;SDS011;5271;44.422;26.092;2023-06-04T03:21:16;0.40;;;0.40;;
10446;SDS011;5271;44.422;26.092;2023-06-04T03:23:43;0.40;;;0.40;;
10446;SDS011;5271;44.422;26.092;2023-06-04T03:26:09;0.40;;;0.40;;
10446;SDS011;5271;44.422;26.092;2023-06-04T03:28:38;0.40;;;0.40;;
10446;SDS011;5271;44.422;26.092;2023-06-04T03:31:06;0.40;;;0.40;;
10446;SDS011;5271;44.422;26.092;2023-06-04T03:33:33;0.40;;;0.40;;
10446;SDS011;5271;44.422;26.092;2023-06-04T03:36:00;0.40;;;0.40;;
10446;SDS011;5271;44.422;26.092;2023-06-04T03:38:27;0.40;;;0.40;;
10446;SDS011;5271;44.422;26.092;2023-06-04T03:40:54;0.30;;;0.30;;
10446;SDS011;5271;44.422;26.092;2023-06-04T03:43:21;0.40;;;0.40;;
10446;SDS011;5271;44.422;26.092;2023-06-04T03:45:48;0.40;;;0.40;;
10446;SDS011;5271;44.422;26.092;2023-06-04T03:48:16;0.30;;;0.30;;
10446;SDS011;5271;44.422;26.092;2023-06-04T03:50:43;0.30;;;0.30;;
10446;SDS011;5271;44.422;26.092;2023-06-04T03:53:11;0.40;;;0.40;;
10446;SDS011;5271;44.422;26.092;2023-06-04T03:55:38;0.50;;;0.50;;
10446;SDS011;5271;44.422;26.092;2023-06-04T03:58:04;0.40;;;0.40;;
10446;SDS011;5271;44.422;26.092;2023-06-04T04:00:34;0.33;;;0.33;;
10446;SDS011;5271;44.422;26.092;2023-06-04T04:03:01;0.40;;;0.40;;
10446;SDS011;5271;44.422;26.092;2023-06-04T04:05:30;0.40;;;0.40;;
10446;SDS011;5271;44.422;26.092;2023-06-04T04:07:58;0.40;;;0.40;;
10446;SDS011;5271;44.422;26.092;2023-06-04T04:10:25;0.40;;;0.40;;
10446;SDS011;5271;44.422;26.092;2023-06-04T04:12:52;0.40;;;0.40;;
10446;SDS011;5271;44.422;26.092;2023-06-04T04:15:20;0.30;;;0.30;;
10446;SDS011;5271;44.422;26.092;2023-06-04T04:17:47;0.40;;;0.40;;
10446;SDS011;5271;44.422;26.092;2023-06-04T04:20:14;0.40;;;0.40;;
10446;SDS011;5271;44.422;26.092;2023-06-04T04:22:44;0.40;;;0.40;;
10446;SDS011;5271;44.422;26.092;2023-06-04T04:25:11;0.40;;;0.40;;
10446;SDS011;5271;44.422;26.092;2023-06-04T04:27:38;0.30;;;0.30;;
10446;SDS011;5271;44.422;26.092;2023-06-04T04:30:06;0.40;;;0.40;;
10446;SDS011;5271;44.422;26.092;2023-06-04T04:32:34;0.40;;;0.40;;
10446;SDS011;5271;44.422;26.092;2023-06-04T04:35:04;0.40;;;0.40;;
10446;SDS011;5271;44.422;26.092;2023-06-04T04:37:33;0.40;;;0.40;;
10446;SDS011;5271;44.422;26.092;2023-06-04T04:40:06;0.30;;;0.30;;
10446;SDS011;5271;44.422;26.092;2023-06-04T04:42:35;0.40;;;0.40;;
10446;SDS011;5271;44.422;26.092;2023-06-04T04:45:02;0.30;;;0.30;;
10446;SDS011;5271;44.422;26.092;2023-06-04T04:47:30;0.40;;;0.40;;
10446;SDS011;5271;44.422;26.092;2023-06-04T04:49:56;0.40;;;0.40;;
10446;SDS011;5271;44.422;26.092;2023-06-04T04:52:23;0.40;;;0.40;;
10446;SDS011;5271;44.422;26.092;2023-06-04T04:54:50;0.40;;;0.40;;
10446;SDS011;5271;44.422;26.092;2023-06-04T04:57:21;0.40;;;0.40;;
10446;SDS011;5271;44.422;26.092;2023-06-04T04:59:48;0.40;;;0.40;;
10446;SDS011;5271;44.422;26.092;2023-06-04T05:02:15;0.40;;;0.40;;
10446;SDS011;5271;44.422;26.092;2023-06-04T05:04:42;0.30;;;0.30;;
10446;SDS011;5271;44.422;26.092;2023-06-04T05:07:09;0.30;;;0.30;;
10446;SDS011;5271;44.422;26.092;2023-06-04T05:09:36;0.30;;;0.30;;
10446;SDS011;5271;44.422;26.092;2023-06-04T05:12:03;0.40;;;0.40;;
10446;SDS011;5271;44.422;26.092;2023-06-04T05:14:31;0.40;;;0.40;;
10446;SDS011;5271;44.422;26.092;2023-06-04T05:17:00;0.30;;;0.30;;
10446;SDS011;5271;44.422;26.092;2023-06-04T05:19:28;0.40;;;0.40;;
10446;SDS011;5271;44.422;26.092;2023-06-04T05:21:57;0.40;;;0.40;;
10446;SDS011;5271;44.422;26.092;2023-06-04T05:24:24;0.40;;;0.40;;
10446;SDS011;5271;44.422;26.092;2023-06-04T05:26:51;0.30;;;0.30;;
10446;SDS011;5271;44.422;26.092;2023-06-04T05:29:18;0.30;;;0.30;;
10446;SDS011;5271;44.422;26.092;2023-06-04T05:31:47;0.30;;;0.30;;
10446;SDS011;5271;44.422;26.092;2023-06-04T05:34:14;0.40;;;0.40;;
10446;SDS011;5271;44.422;26.092;2023-06-04T05:36:41;0.40;;;0.40;;
10446;SDS011;5271;44.422;26.092;2023-06-04T05:39:09;0.40;;;0.40;;
10446;SDS011;5271;44.422;26.092;2023-06-04T05:41:36;0.30;;;0.30;;
10446;SDS011;5271;44.422;26.092;2023-06-04T05:44:03;0.37;;;0.37;;
10446;SDS011;5271;44.422;26.092;2023-06-04T05:46:30;0.40;;;0.40;;
10446;SDS011;5271;44.422;26.092;2023-06-04T05:48:58;0.30;;;0.30;;
10446;SDS011;5271;44.422;26.092;2023-06-04T05:51:25;0.30;;;0.30;;
10446;SDS011;5271;44.422;26.092;2023-06-04T05:53:52;0.40;;;0.40;;
10446;SDS011;5271;44.422;26.092;2023-06-04T05:56:19;0.40;;;0.40;;
10446;SDS011;5271;44.422;26.092;2023-06-04T05:58:50;0.40;;;0.40;;
10446;SDS011;5271;44.422;26.092;2023-06-04T06:01:18;0.30;;;0.30;;
10446;SDS011;5271;44.422;26.092;2023-06-04T06:03:45;0.40;;;0.40;;
10446;SDS011;5271;44.422;26.092;2023-06-04T06:06:13;0.30;;;0.30;;
10446;SDS011;5271;44.422;26.092;2023-06-04T06:08:40;0.40;;;0.40;;
10446;SDS011;5271;44.422;26.092;2023-06-04T06:11:06;0.40;;;0.40;;
10446;SDS011;5271;44.422;26.092;2023-06-04T06:13:34;0.40;;;0.40;;
10446;SDS011;5271;44.422;26.092;2023-06-04T06:16:01;0.50;;;0.50;;
10446;SDS011;5271;44.422;26.092;2023-06-04T06:18:28;0.40;;;0.40;;
10446;SDS011;5271;44.422;26.092;2023-06-04T06:20:55;0.40;;;0.40;;
10446;SDS011;5271;44.422;26.092;2023-06-04T06:23:23;0.40;;;0.40;;
10446;SDS011;5271;44.422;26.092;2023-06-04T06:25:50;0.40;;;0.40;;
10446;SDS011;5271;44.422;26.092;2023-06-04T06:28:17;0.40;;;0.40;;
10446;SDS011;5271;44.422;26.092;2023-06-04T06:30:44;0.30;;;0.30;;
10446;SDS011;5271;44.422;26.092;2023-06-04T06:33:12;0.40;;;0.40;;
10446;SDS011;5271;44.422;26.092;2023-06-04T06:35:39;0.40;;;0.40;;
10446;SDS011;5271;44.422;26.092;2023-06-04T06:38:06;0.40;;;0.40;;
10446;SDS011;5271;44.422;26.092;2023-06-04T06:40:35;0.30;;;0.30;;
10446;SDS011;5271;44.422;26.092;2023-06-04T06:43:01;0.30;;;0.30;;
10446;SDS011;5271;44.422;26.092;2023-06-04T06:45:28;0.40;;;0.40;;
10446;SDS011;5271;44.422;26.092;2023-06-04T06:47:55;0.40;;;0.40;;
10446;SDS011;5271;44.422;26.092;2023-06-04T06:50:22;0.40;;;0.40;;
10446;SDS011;5271;44.422;26.092;2023-06-04T06:52:49;0.40;;;0.40;;
10446;SDS011;5271;44.422;26.092;2023-06-04T06:55:16;0.40;;;0.40;;
10446;SDS011;5271;44.422;26.092;2023-06-04T06:57:44;0.30;;;0.30;;
10446;SDS011;5271;44.422;26.092;2023-06-04T07:00:11;0.30;;;0.30;;
10446;SDS011;5271;44.422;26.092;2023-06-04T07:02:39;0.40;;;0.40;;
10446;SDS011;5271;44.422;26.092;2023-06-04T07:05:06;0.40;;;0.40;;
10446;SDS011;5271;44.422;26.092;2023-06-04T07:07:33;0.37;;;0.37;;
10446;SDS011;5271;44.422;26.092;2023-06-04T07:10:01;0.37;;;0.37;;
10446;SDS011;5271;44.422;26.092;2023-06-04T07:12:29;0.40;;;0.40;;
10446;SDS011;5271;44.422;26.092;2023-06-04T07:14:57;0.40;;;0.40;;
10446;SDS011;5271;44.422;26.092;2023-06-04T07:17:24;0.40;;;0.40;;
10446;SDS011;5271;44.422;26.092;2023-06-04T07:19:50;0.40;;;0.40;;
10446;SDS011;5271;44.422;26.092;2023-06-04T07:22:17;0.30;;;0.30;;
10446;SDS011;5271;44.422;26.092;2023-06-04T07:24:44;0.40;;;0.40;;
10446;SDS011;5271;44.422;26.092;2023-06-04T07:27:11;0.30;;;0.30;;
10446;SDS011;5271;44.422;26.092;2023-06-04T07:29:38;0.40;;;0.40;;
10446;SDS011;5271;44.422;26.092;2023-06-04T07:32:07;0.30;;;0.30;;
10446;SDS011;5271;44.422;26.092;2023-06-04T07:34:34;0.30;;;0.30;;
10446;SDS011;5271;44.422;26.092;2023-06-04T07:37:02;0.30;;;0.30;;
10446;SDS011;5271;44.422;26.092;2023-06-04T07:39:29;0.40;;;0.40;;
10446;SDS011;5271;44.422;26.092;2023-06-04T07:41:56;0.30;;;0.30;;
10446;SDS011;5271;44.422;26.092;2023-06-04T07:44:23;0.30;;;0.30;;
10446;SDS011;5271;44.422;26.092;2023-06-04T07:46:49;0.30;;;0.30;;
10446;SDS011;5271;44.422;26.092;2023-06-04T07:49:18;0.30;;;0.30;;
10446;SDS011;5271;44.422;26.092;2023-06-04T07:51:45;0.30;;;0.30;;
10446;SDS011;5271;44.422;26.092;2023-06-04T07:54:12;0.30;;;0.30;;
10446;SDS011;5271;44.422;26.092;2023-06-04T07:56:40;0.30;;;0.30;;
10446;SDS011;5271;44.422;26.092;2023-06-04T07:59:06;0.30;;;0.30;;
10446;SDS011;5271;44.422;26.092;2023-06-04T08:01:33;0.30;;;0.30;;
10446;SDS011;5271;44.422;26.092;2023-06-04T08:04:00;0.30;;;0.30;;
10446;SDS011;5271;44.422;26.092;2023-06-04T08:06:28;0.30;;;0.30;;
10446;SDS011;5271;44.422;26.092;2023-06-04T08:08:55;0.30;;;0.30;;
10446;SDS011;5271;44.422;26.092;2023-06-04T08:11:22;0.30;;;0.30;;
10446;SDS011;5271;44.422;26.092;2023-06-04T08:13:49;0.20;;;0.20;;
10446;SDS011;5271;44.422;26.092;2023-06-04T08:16:16;0.30;;;0.30;;
10446;SDS011;5271;44.422;26.092;2023-06-04T08:18:43;0.30;;;0.30;;
10446;SDS011;5271;44.422;26.092;2023-06-04T08:21:10;0.30;;;0.30;;
10446;SDS011;5271;44.422;26.092;2023-06-04T08:23:38;0.30;;;0.30;;
10446;SDS011;5271;44.422;26.092;2023-06-04T08:26:06;0.30;;;0.30;;
10446;SDS011;5271;44.422;26.092;2023-06-04T08:28:32;0.30;;;0.30;;
10446;SDS011;5271;44.422;26.092;2023-06-04T08:30:59;0.23;;;0.23;;
10446;SDS011;5271;44.422;26.092;2023-06-04T08:33:26;0.30;;;0.30;;
10446;SDS011;5271;44.422;26.092;2023-06-04T08:35:53;0.30;;;0.30;;
10446;SDS011;5271;44.422;26.092;2023-06-04T08:38:20;0.20;;;0.20;;
10446;SDS011;5271;44.422;26.092;2023-06-04T08:40:50;0.30;;;0.30;;
10446;SDS011;5271;44.422;26.092;2023-06-04T08:43:19;0.30;;;0.30;;
10446;SDS011;5271;44.422;26.092;2023-06-04T08:45:48;0.30;;;0.30;;
10446;SDS011;5271;44.422;26.092;2023-06-04T08:48:16;0.30;;;0.30;;
10446;SDS011;5271;44.422;26.092;2023-06-04T08:50:47;0.30;;;0.30;;
10446;SDS011;5271;44.422;26.092;2023-06-04T08:53:15;0.30;;;0.30;;
10446;SDS011;5271;44.422;26.092;2023-06-04T08:55:42;0.20;;;0.20;;
10446;SDS011;5271;44.422;26.092;2023-06-04T08:58:10;0.20;;;0.20;;
10446;SDS011;5271;44.422;26.092;2023-06-04T09:00:37;0.20;;;0.20;;
10446;SDS011;5271;44.422;26.092;2023-06-04T09:03:04;0.30;;;0.30;;
10446;SDS011;5271;44.422;26.092;2023-06-04T09:05:31;0.20;;;0.20;;
10446;SDS011;5271;44.422;26.092;2023-06-04T09:08:00;0.20;;;0.20;;
10446;SDS011;5271;44.422;26.092;2023-06-04T09:10:28;0.20;;;0.20;;
10446;SDS011;5271;44.422;26.092;2023-06-04T09:12:57;0.20;;;0.20;;
10446;SDS011;5271;44.422;26.092;2023-06-04T09:15:30;0.20;;;0.20;;
10446;SDS011;5271;44.422;26.092;2023-06-04T09:17:57;0.20;;;0.20;;
10446;SDS011;5271;44.422;26.092;2023-06-04T09:20:24;0.20;;;0.20;;
10446;SDS011;5271;44.422;26.092;2023-06-04T09:22:51;0.20;;;0.20;;
10446;SDS011;5271;44.422;26.092;2023-06-04T09:25:21;0.20;;;0.20;;
10446;SDS011;5271;44.422;26.092;2023-06-04T09:27:50;0.20;;;0.20;;
10446;SDS011;5271;44.422;26.092;2023-06-04T09:30:17;0.20;;;0.20;;
10446;SDS011;5271;44.422;26.092;2023-06-04T09:32:46;0.20;;;0.20;;
10446;SDS011;5271;44.422;26.092;2023-06-04T09:35:13;0.20;;;0.20;;
10446;SDS011;5271;44.422;26.092;2023-06-04T09:37:42;0.20;;;0.20;;
10446;SDS011;5271;44.422;26.092;2023-06-04T09:40:10;0.20;;;0.20;;
10446;SDS011;5271;44.422;26.092;2023-06-04T09:42:43;0.20;;;0.20;;
10446;SDS011;5271;44.422;26.092;2023-06-04T09:45:11;0.10;;;0.10;;
10446;SDS011;5271;44.422;26.092;2023-06-04T09:47:38;0.20;;;0.20;;
10446;SDS011;5271;44.422;26.092;2023-06-04T09:50:08;0.20;;;0.20;;
10446;SDS011;5271;44.422;26.092;2023-06-04T09:52:36;0.10;;;0.10;;
10446;SDS011;5271;44.422;26.092;2023-06-04T09:55:14;0.10;;;0.10;;
10446;SDS011;5271;44.422;26.092;2023-06-04T09:57:44;0.20;;;0.20;;
10446;SDS011;5271;44.422;26.092;2023-06-04T10:00:13;0.20;;;0.20;;
10446;SDS011;5271;44.422;26.092;2023-06-04T10:02:42;0.20;;;0.20;;
10446;SDS011;5271;44.422;26.092;2023-06-04T10:05:12;0.20;;;0.20;;
10446;SDS011;5271;44.422;26.092;2023-06-04T10:07:40;0.20;;;0.20;;
10446;SDS011;5271;44.422;26.092;2023-06-04T10:10:09;0.10;;;0.10;;
10446;SDS011;5271;44.422;26.092;2023-06-04T10:12:41;0.10;;;0.10;;
10446;SDS011;5271;44.422;26.092;2023-06-04T10:15:10;0.10;;;0.10;;
10446;SDS011;5271;44.422;26.092;2023-06-04T10:17:38;0.20;;;0.20;;
10446;SDS011;5271;44.422;26.092;2023-06-04T10:20:06;0.10;;;0.10;;
10446;SDS011;5271;44.422;26.092;2023-06-04T10:22:37;0.10;;;0.10;;
10446;SDS011;5271;44.422;26.092;2023-06-04T10:25:05;0.20;;;0.20;;
10446;SDS011;5271;44.422;26.092;2023-06-04T10:27:35;0.10;;;0.10;;
10446;SDS011;5271;44.422;26.092;2023-06-04T10:30:02;0.10;;;0.10;;
10446;SDS011;5271;44.422;26.092;2023-06-04T10:32:30;0.10;;;0.10;;
10446;SDS011;5271;44.422;26.092;2023-06-04T10:34:57;0.10;;;0.10;;
10446;SDS011;5271;44.422;26.092;2023-06-04T10:37:26;0.10;;;0.10;;
10446;SDS011;5271;44.422;26.092;2023-06-04T10:39:56;0.10;;;0.10;;
10446;SDS011;5271;44.422;26.092;2023-06-04T10:42:23;0.10;;;0.10;;
10446;SDS011;5271;44.422;26.092;2023-06-04T10:44:52;0.10;;;0.10;;
10446;SDS011;5271;44.422;26.092;2023-06-04T10:47:20;0.10;;;0.10;;
10446;SDS011;5271;44.422;26.092;2023-06-04T10:49:49;0.13;;;0.13;;
10446;SDS011;5271;44.422;26.092;2023-06-04T10:52:17;0.10;;;0.10;;
10446;SDS011;5271;44.422;26.092;2023-06-04T10:54:44;0.10;;;0.10;;
10446;SDS011;5271;44.422;26.092;2023-06-04T10:57:15;0.10;;;0.10;;
10446;SDS011;5271;44.422;26.092;2023-06-04T10:59:52;0.10;;;0.10;;
10446;SDS011;5271;44.422;26.092;2023-06-04T11:02:20;0.10;;;0.10;;
10446;SDS011;5271;44.422;26.092;2023-06-04T11:04:47;0.10;;;0.10;;
10446;SDS011;5271;44.422;26.092;2023-06-04T11:07:26;0.10;;;0.10;;
10446;SDS011;5271;44.422;26.092;2023-06-04T11:09:53;0.10;;;0.10;;
10446;SDS011;5271;44.422;26.092;2023-06-04T11:12:22;0.10;;;0.10;;
10446;SDS011;5271;44.422;26.092;2023-06-04T11:14:55;0.10;;;0.10;;
10446;SDS011;5271;44.422;26.092;2023-06-04T11:17:23;0.10;;;0.10;;
10446;SDS011;5271;44.422;26.092;2023-06-04T11:19:50;0.10;;;0.10;;
10446;SDS011;5271;44.422;26.092;2023-06-04T11:22:20;0.10;;;0.10;;
10446;SDS011;5271;44.422;26.092;2023-06-04T11:24:47;0.10;;;0.10;;
10446;SDS011;5271;44.422;26.092;2023-06-04T11:27:14;0.10;;;0.10;;
10446;SDS011;5271;44.422;26.092;2023-06-04T11:29:42;0.10;;;0.10;;
10446;SDS011;5271;44.422;26.092;2023-06-04T11:32:09;0.00;;;0.00;;
10446;SDS011;5271;44.422;26.092;2023-06-04T11:34:46;0.10;;;0.10;;
10446;SDS011;5271;44.422;26.092;2023-06-04T11:37:13;0.10;;;0.10;;
10446;SDS011;5271;44.422;26.092;2023-06-04T11:39:40;0.00;;;0.00;;
10446;SDS011;5271;44.422;26.092;2023-06-04T11:42:09;0.10;;;0.10;;
10446;SDS011;5271;44.422;26.092;2023-06-04T11:44:36;0.10;;;0.10;;
10446;SDS011;5271;44.422;26.092;2023-06-04T11:47:11;0.10;;;0.10;;
10446;SDS011;5271;44.422;26.092;2023-06-04T11:49:38;0.10;;;0.10;;
10446;SDS011;5271;44.422;26.092;2023-06-04T11:52:08;0.10;;;0.10;;
10446;SDS011;5271;44.422;26.092;2023-06-04T11:54:35;0.10;;;0.10;;
10446;SDS011;5271;44.422;26.092;2023-06-04T11:57:03;0.10;;;0.10;;
10446;SDS011;5271;44.422;26.092;2023-06-04T11:59:31;0.10;;;0.10;;
10446;SDS011;5271;44.422;26.092;2023-06-04T12:01:58;0.10;;;0.10;;
10446;SDS011;5271;44.422;26.092;2023-06-04T12:04:29;0.10;;;0.10;;
10446;SDS011;5271;44.422;26.092;2023-06-04T12:06:57;0.10;;;0.10;;
10446;SDS011;5271;44.422;26.092;2023-06-04T12:09:27;0.10;;;0.10;;
10446;SDS011;5271;44.422;26.092;2023-06-04T12:11:59;0.10;;;0.10;;
10446;SDS011;5271;44.422;26.092;2023-06-04T12:14:26;0.10;;;0.10;;
10446;SDS011;5271;44.422;26.092;2023-06-04T12:16:54;0.10;;;0.10;;
10446;SDS011;5271;44.422;26.092;2023-06-04T12:19:21;0.10;;;0.10;;
10446;SDS011;5271;44.422;26.092;2023-06-04T12:21:58;0.10;;;0.10;;
10446;SDS011;5271;44.422;26.092;2023-06-04T12:24:26;0.10;;;0.10;;
10446;SDS011;5271;44.422;26.092;2023-06-04T12:27:00;0.10;;;0.10;;
10446;SDS011;5271;44.422;26.092;2023-06-04T12:29:28;0.10;;;0.10;;
10446;SDS011;5271;44.422;26.092;2023-06-04T12:32:01;0.10;;;0.10;;
10446;SDS011;5271;44.422;26.092;2023-06-04T12:34:29;0.10;;;0.10;;
10446;SDS011;5271;44.422;26.092;2023-06-04T12:36:58;0.10;;;0.10;;
10446;SDS011;5271;44.422;26.092;2023-06-04T12:39:25;0.10;;;0.10;;
10446;SDS011;5271;44.422;26.092;2023-06-04T12:41:52;0.10;;;0.10;;
10446;SDS011;5271;44.422;26.092;2023-06-04T12:44:19;0.10;;;0.10;;
10446;SDS011;5271;44.422;26.092;2023-06-04T12:46:46;0.10;;;0.10;;
10446;SDS011;5271;44.422;26.092;2023-06-04T12:49:13;0.10;;;0.10;;
10446;SDS011;5271;44.422;26.092;2023-06-04T12:51:40;0.10;;;0.10;;
10446;SDS011;5271;44.422;26.092;2023-06-04T12:54:08;0.10;;;0.10;;
10446;SDS011;5271;44.422;26.092;2023-06-04T12:56:36;0.10;;;0.10;;
10446;SDS011;5271;44.422;26.092;2023-06-04T12:59:03;0.10;;;0.10;;
10446;SDS011;5271;44.422;26.092;2023-06-04T13:01:29;0.10;;;0.10;;
10446;SDS011;5271;44.422;26.092;2023-06-04T13:03:56;0.10;;;0.10;;
10446;SDS011;5271;44.422;26.092;2023-06-04T13:06:24;0.10;;;0.10;;
10446;SDS011;5271;44.422;26.092;2023-06-04T13:08:51;0.10;;;0.10;;
10446;SDS011;5271;44.422;26.092;2023-06-04T13:11:20;0.10;;;0.10;;
10446;SDS011;5271;44.422;26.092;2023-06-04T13:13:47;0.10;;;0.10;;
10446;SDS011;5271;44.422;26.092;2023-06-04T13:16:14;0.10;;;0.10;;
10446;SDS011;5271;44.422;26.092;2023-06-04T13:18:40;0.10;;;0.10;;
10446;SDS011;5271;44.422;26.092;2023-06-04T13:21:07;0.10;;;0.10;;
10446;SDS011;5271;44.422;26.092;2023-06-04T13:23:34;0.10;;;0.10;;
10446;SDS011;5271;44.422;26.092;2023-06-04T13:26:01;0.10;;;0.10;;
10446;SDS011;5271;44.422;26.092;2023-06-04T13:28:29;0.10;;;0.10;;
10446;SDS011;5271;44.422;26.092;2023-06-04T13:30:56;0.10;;;0.10;;
10446;SDS011;5271;44.422;26.092;2023-06-04T13:33:23;0.10;;;0.10;;
10446;SDS011;5271;44.422;26.092;2023-06-04T13:35:50;0.10;;;0.10;;
10446;SDS011;5271;44.422;26.092;2023-06-04T13:38:18;0.10;;;0.10;;
10446;SDS011;5271;44.422;26.092;2023-06-04T13:40:44;0.10;;;0.10;;
10446;SDS011;5271;44.422;26.092;2023-06-04T13:43:11;0.10;;;0.10;;
10446;SDS011;5271;44.422;26.092;2023-06-04T13:45:40;0.10;;;0.10;;
10446;SDS011;5271;44.422;26.092;2023-06-04T13:48:09;0.10;;;0.10;;
10446;SDS011;5271;44.422;26.092;2023-06-04T13:50:36;0.10;;;0.10;;
10446;SDS011;5271;44.422;26.092;2023-06-04T13:53:03;0.00;;;0.00;;
10446;SDS011;5271;44.422;26.092;2023-06-04T13:55:30;0.10;;;0.10;;
10446;SDS011;5271;44.422;26.092;2023-06-04T13:57:57;0.10;;;0.10;;
10446;SDS011;5271;44.422;26.092;2023-06-04T14:00:23;0.10;;;0.10;;
10446;SDS011;5271;44.422;26.092;2023-06-04T14:02:52;0.00;;;0.00;;
10446;SDS011;5271;44.422;26.092;2023-06-04T14:05:20;0.00;;;0.00;;
10446;SDS011;5271;44.422;26.092;2023-06-04T14:07:47;0.10;;;0.10;;
10446;SDS011;5271;44.422;26.092;2023-06-04T14:10:14;0.10;;;0.10;;
10446;SDS011;5271;44.422;26.092;2023-06-04T14:12:41;0.10;;;0.10;;
10446;SDS011;5271;44.422;26.092;2023-06-04T14:15:09;0.10;;;0.10;;
10446;SDS011;5271;44.422;26.092;2023-06-04T14:17:37;0.10;;;0.10;;
10446;SDS011;5271;44.422;26.092;2023-06-04T14:20:09;0.10;;;0.10;;
10446;SDS011;5271;44.422;26.092;2023-06-04T14:22:36;0.10;;;0.10;;
10446;SDS011;5271;44.422;26.092;2023-06-04T14:25:04;0.10;;;0.10;;
10446;SDS011;5271;44.422;26.092;2023-06-04T14:27:32;0.10;;;0.10;;
10446;SDS011;5271;44.422;26.092;2023-06-04T14:30:00;0.10;;;0.10;;
10446;SDS011;5271;44.422;26.092;2023-06-04T14:32:27;0.10;;;0.10;;
10446;SDS011;5271;44.422;26.092;2023-06-04T14:34:54;0.00;;;0.00;;
10446;SDS011;5271;44.422;26.092;2023-06-04T14:37:24;0.00;;;0.00;;
10446;SDS011;5271;44.422;26.092;2023-06-04T14:39:50;0.10;;;0.10;;
10446;SDS011;5271;44.422;26.092;2023-06-04T14:42:17;0.00;;;0.00;;
10446;SDS011;5271;44.422;26.092;2023-06-04T14:44:44;0.10;;;0.10;;
10446;SDS011;5271;44.422;26.092;2023-06-04T14:47:11;0.00;;;0.00;;
10446;SDS011;5271;44.422;26.092;2023-06-04T14:49:38;0.00;;;0.00;;
10446;SDS011;5271;44.422;26.092;2023-06-04T14:52:05;0.10;;;0.10;;